createdAt,value
2019-02-25T00:02:28.862Z,9.52
2019-02-25T00:04:59.296Z,9.49
2019-02-25T00:07:29.780Z,9.49
2019-02-25T00:10:00.331Z,9.49
2019-02-25T00:12:31.055Z,9.42
2019-02-25T00:15:01.775Z,9.34
2019-02-25T00:17:32.289Z,9.27
2019-02-25T00:20:02.757Z,9.21
2019-02-25T00:22:33.398Z,9.15
2019-02-25T00:25:04.441Z,9.07
2019-02-25T00:27:35.006Z,9.01
2019-02-25T00:30:06.477Z,8.95
2019-02-25T00:32:37.258Z,8.84
2019-02-25T00:35:07.882Z,8.75
2019-02-25T00:37:38.347Z,8.67
2019-02-25T00:40:08.941Z,8.67
2019-02-25T00:42:39.426Z,8.67
2019-02-25T00:45:10.043Z,8.58
2019-02-25T00:47:40.599Z,8.64
2019-02-25T00:50:12.713Z,8.56
2019-02-25T00:52:43.464Z,8.57
2019-02-25T00:55:15.881Z,8.56
2019-02-25T00:57:46.589Z,8.48
2019-02-25T01:00:19.245Z,8.47
2019-02-25T01:02:49.812Z,8.62
2019-02-25T01:05:20.385Z,8.70
2019-02-25T01:07:51.282Z,8.76
2019-02-25T01:10:22.308Z,8.75
2019-02-25T01:12:52.784Z,8.73
2019-02-25T01:15:23.290Z,8.70
2019-02-25T01:17:53.754Z,8.71
2019-02-25T01:20:24.249Z,8.86
2019-02-25T01:22:54.756Z,8.97
2019-02-25T01:25:25.344Z,9.11
2019-02-25T01:27:55.842Z,9.09
2019-02-25T01:30:26.405Z,9.27
2019-02-25T01:32:56.932Z,9.20
2019-02-25T01:35:27.696Z,9.23
2019-02-25T01:37:58.211Z,9.23
2019-02-25T01:40:28.681Z,9.28
2019-02-25T01:42:59.165Z,9.23
2019-02-25T01:45:30.011Z,9.27
2019-02-25T01:48:00.455Z,9.26
2019-02-25T01:50:31.189Z,9.23
2019-02-25T01:53:01.704Z,9.09
2019-02-25T01:55:32.191Z,9.06
2019-02-25T01:58:02.702Z,9.06
2019-02-25T02:00:33.374Z,9.07
2019-02-25T02:03:03.889Z,9.41
2019-02-25T02:05:34.887Z,9.58
2019-02-25T02:08:05.965Z,9.58
2019-02-25T02:10:36.693Z,9.86
2019-02-25T02:13:13.988Z,9.88
2019-02-25T02:15:39.924Z,9.87
2019-02-25T02:18:10.404Z,10.03
2019-02-25T02:20:41.191Z,10.04
2019-02-25T02:23:11.694Z,10.03
2019-02-25T02:25:42.166Z,10.08
2019-02-25T02:28:12.657Z,10.05
2019-02-25T02:30:43.632Z,10.04
2019-02-25T02:33:14.144Z,10.00
2019-02-25T02:35:44.704Z,10.03
2019-02-25T02:38:15.216Z,10.08
2019-02-25T02:40:45.969Z,10.15
2019-02-25T02:43:16.691Z,10.29
2019-02-25T02:45:55.612Z,10.41
2019-02-25T02:48:37.926Z,10.32
2019-02-25T02:51:08.521Z,10.33
2019-02-25T02:53:39.007Z,10.42
2019-02-25T02:56:09.562Z,10.33
2019-02-25T02:58:40.140Z,10.36
2019-02-25T03:01:10.994Z,10.26
2019-02-25T03:03:41.757Z,10.25
2019-02-25T03:06:12.592Z,10.08
2019-02-25T03:08:43.381Z,9.99
2019-02-25T03:11:13.898Z,10.06
2019-02-25T03:13:44.695Z,9.97
2019-02-25T03:16:15.417Z,9.97
2019-02-25T03:18:45.892Z,9.83
2019-02-25T03:21:16.435Z,9.70
2019-02-25T03:23:47.167Z,9.69
2019-02-25T03:26:17.882Z,9.59
2019-02-25T03:28:48.407Z,9.54
2019-02-25T03:31:18.920Z,9.48
2019-02-25T03:33:49.406Z,9.41
2019-02-25T03:36:19.968Z,9.42
2019-02-25T03:38:50.533Z,9.41
2019-02-25T03:41:21.335Z,9.31
2019-02-25T03:43:51.947Z,9.16
2019-02-25T03:46:22.689Z,9.10
2019-02-25T03:48:53.158Z,9.01
2019-02-25T03:51:23.870Z,8.94
2019-02-25T03:53:54.419Z,8.89
2019-02-25T03:56:25.006Z,8.86
2019-02-25T03:58:55.504Z,8.78
2019-02-25T04:01:26.260Z,8.78
2019-02-25T04:03:56.736Z,8.81
2019-02-25T04:06:27.629Z,8.76
2019-02-25T04:08:58.109Z,8.65
2019-02-25T04:11:28.617Z,8.76
2019-02-25T04:13:59.393Z,8.63
2019-02-25T04:16:30.229Z,8.57
2019-02-25T04:19:00.786Z,8.47
2019-02-25T04:21:31.574Z,8.38
2019-02-25T04:24:02.332Z,8.40
2019-02-25T04:26:33.060Z,8.34
2019-02-25T04:29:03.650Z,8.34
2019-02-25T04:31:34.144Z,8.36
2019-02-25T04:34:04.881Z,8.37
2019-02-25T04:36:35.452Z,8.28
2019-02-25T04:39:07.008Z,8.29
2019-02-25T04:41:38.320Z,8.32
2019-02-25T04:44:08.829Z,8.22
2019-02-25T04:46:39.295Z,8.25
2019-02-25T04:49:10.110Z,8.15
2019-02-25T04:51:40.627Z,8.11
2019-02-25T04:54:11.116Z,8.07
2019-02-25T04:56:41.885Z,8.04
2019-02-25T04:59:12.828Z,8.03
2019-02-25T05:01:43.429Z,8.08
2019-02-25T05:04:13.920Z,7.94
2019-02-25T05:06:44.484Z,7.93
2019-02-25T05:09:15.224Z,7.87
2019-02-25T05:11:45.705Z,7.88
2019-02-25T05:14:16.272Z,7.74
2019-02-25T05:16:47.339Z,7.71
2019-02-25T05:19:17.842Z,7.71
2019-02-25T05:21:48.368Z,7.69
2019-02-25T05:24:18.871Z,7.72
2019-02-25T05:26:49.473Z,7.67
2019-02-25T05:29:20.331Z,7.65
2019-02-25T05:31:50.828Z,7.55
2019-02-25T05:34:21.333Z,7.47
2019-02-25T05:36:52.236Z,7.39
2019-02-25T05:39:22.949Z,7.31
2019-02-25T05:41:53.432Z,7.35
2019-02-25T05:44:23.953Z,7.32
2019-02-25T05:46:54.474Z,7.22
2019-02-25T05:49:25.216Z,7.17
2019-02-25T05:51:56.352Z,7.12
2019-02-25T05:54:26.837Z,7.06
2019-02-25T05:56:57.306Z,6.97
2019-02-25T05:59:28.784Z,7.01
2019-02-25T06:01:59.590Z,7.03
2019-02-25T06:04:30.077Z,6.91
2019-02-25T06:07:03.687Z,7.01
2019-02-25T06:09:34.330Z,7.05
2019-02-25T06:12:05.135Z,7.10
2019-02-25T06:14:35.651Z,7.06
2019-02-25T06:17:06.128Z,7.11
2019-02-25T06:19:36.624Z,7.18
2019-02-25T06:22:07.174Z,7.19
2019-02-25T06:24:37.682Z,7.20
2019-02-25T06:27:08.249Z,7.20
2019-02-25T06:29:39.034Z,7.28
2019-02-25T06:32:09.545Z,7.22
2019-02-25T06:34:40.283Z,7.20
2019-02-25T06:37:10.858Z,7.25
2019-02-25T06:39:41.345Z,7.31
2019-02-25T06:42:11.867Z,7.32
2019-02-25T06:44:42.387Z,7.34
2019-02-25T06:47:12.898Z,7.39
2019-02-25T06:49:43.422Z,7.36
2019-02-25T06:52:14.016Z,7.38
2019-02-25T06:54:44.529Z,7.38
2019-02-25T06:57:15.301Z,7.57
2019-02-25T06:59:46.384Z,7.79
2019-02-25T07:02:17.199Z,8.07
2019-02-25T07:05:05.467Z,8.29
2019-02-25T07:07:53.815Z,8.46
2019-02-25T07:10:40.436Z,8.54
2019-02-25T07:13:22.714Z,8.66
2019-02-25T07:15:59.235Z,8.91
2019-02-25T07:18:38.104Z,9.20
2019-02-25T07:21:23.945Z,9.43
2019-02-25T07:24:01.289Z,9.76
2019-02-25T07:26:53.778Z,9.93
2019-02-25T07:29:55.491Z,10.13
2019-02-25T07:32:43.343Z,10.04
2019-02-25T07:35:35.733Z,10.18
2019-02-25T07:38:19.602Z,10.90
2019-02-25T07:41:09.254Z,11.24
2019-02-25T07:43:58.430Z,10.84
2019-02-25T07:46:38.786Z,11.21
2019-02-25T07:49:27.501Z,11.47
2019-02-25T07:52:22.702Z,11.75
2019-02-25T07:55:15.360Z,12.06
2019-02-25T07:58:04.722Z,12.22
2019-02-25T08:00:51.094Z,11.98
2019-02-25T08:03:30.743Z,12.25
2019-02-25T08:06:19.210Z,12.26
2019-02-25T08:09:05.311Z,12.77
2019-02-25T08:11:57.565Z,12.43
2019-02-25T08:14:45.834Z,12.40
2019-02-25T08:17:32.041Z,12.68
2019-02-25T08:20:19.863Z,13.20
2019-02-25T08:23:09.267Z,12.96
2019-02-25T08:25:58.557Z,12.82
2019-02-25T08:29:00.195Z,13.44
2019-02-25T08:31:49.474Z,13.69
2019-02-25T08:34:37.677Z,13.75
2019-02-25T08:37:45.906Z,14.23
2019-02-25T08:41:01.056Z,14.48
2019-02-25T08:43:45.047Z,14.84
2019-02-25T08:46:43.675Z,14.84
2019-02-25T08:49:17.554Z,15.32
2019-02-25T08:51:48.173Z,15.56
2019-02-25T08:54:18.634Z,15.94
2019-02-25T08:56:49.223Z,16.42
2019-02-25T08:59:20.009Z,17.12
2019-02-25T09:01:50.528Z,17.13
2019-02-25T09:04:21.019Z,17.10
2019-02-25T09:06:51.779Z,16.68
2019-02-25T09:09:22.333Z,17.17
2019-02-25T09:11:52.806Z,16.90
2019-02-25T09:14:23.354Z,17.29
2019-02-25T09:16:53.817Z,15.66
2019-02-25T09:19:24.304Z,16.59
2019-02-25T09:21:55.153Z,17.44
2019-02-25T09:24:25.635Z,17.60
2019-02-25T09:26:56.363Z,18.40
2019-02-25T09:29:27.161Z,18.46
2019-02-25T09:31:57.645Z,18.56
2019-02-25T09:34:28.355Z,19.19
2019-02-25T09:36:59.249Z,18.81
2019-02-25T09:39:29.723Z,18.70
2019-02-25T09:42:02.083Z,18.23
2019-02-25T09:44:32.688Z,18.84
2019-02-25T09:47:05.073Z,19.01
2019-02-25T09:49:35.414Z,19.24
2019-02-25T09:52:06.041Z,18.63
2019-02-25T09:54:36.501Z,19.51
2019-02-25T09:57:07.237Z,19.46
2019-02-25T09:59:37.785Z,19.36
2019-02-25T10:02:08.415Z,19.55
2019-02-25T10:04:39.160Z,20.05
2019-02-25T10:07:09.633Z,19.18
2019-02-25T10:09:40.119Z,19.76
2019-02-25T10:12:10.663Z,20.15
2019-02-25T10:14:41.141Z,20.17
2019-02-25T10:17:11.629Z,20.49
2019-02-25T10:19:42.169Z,20.35
2019-02-25T10:22:12.656Z,20.86
2019-02-25T10:24:43.137Z,20.83
2019-02-25T10:27:13.682Z,21.30
2019-02-25T10:29:44.163Z,21.24
2019-02-25T10:32:14.884Z,22.00
2019-02-25T10:34:45.411Z,22.35
2019-02-25T10:37:17.120Z,21.85
2019-02-25T10:39:49.454Z,21.74
2019-02-25T10:42:20.151Z,22.39
2019-02-25T10:44:50.873Z,22.10
2019-02-25T10:47:21.736Z,22.08
2019-02-25T10:49:52.262Z,22.98
2019-02-25T10:52:22.738Z,22.76
2019-02-25T10:54:54.138Z,21.24
2019-02-25T10:57:27.146Z,22.68
2019-02-25T10:59:58.501Z,22.78
2019-02-25T11:02:29.229Z,22.17
2019-02-25T11:04:59.744Z,22.67
2019-02-25T11:07:30.767Z,21.95
2019-02-25T11:10:09.968Z,22.80
2019-02-25T11:12:40.598Z,23.09
2019-02-25T11:15:12.065Z,23.02
2019-02-25T11:17:45.051Z,22.65
2019-02-25T11:20:16.007Z,22.65
2019-02-25T11:22:48.401Z,23.25
2019-02-25T11:25:19.388Z,23.86
2019-02-25T11:27:51.252Z,23.03
2019-02-25T11:30:23.688Z,23.89
2019-02-25T11:32:56.203Z,23.80
2019-02-25T11:35:26.435Z,23.37
2019-02-25T11:37:59.800Z,24.56
2019-02-25T11:40:31.277Z,24.42
2019-02-25T11:43:02.316Z,23.73
2019-02-25T11:45:32.904Z,23.35
2019-02-25T11:48:04.405Z,21.96
2019-02-25T11:50:34.874Z,22.70
2019-02-25T11:53:05.348Z,23.15
2019-02-25T11:55:36.116Z,22.92
2019-02-25T11:58:06.896Z,23.67
2019-02-25T12:00:37.381Z,24.33
2019-02-25T12:03:08.115Z,23.50
2019-02-25T12:05:38.776Z,23.63
2019-02-25T12:08:09.400Z,23.95
2019-02-25T12:10:40.196Z,23.12
2019-02-25T12:13:10.943Z,24.06
2019-02-25T12:15:41.716Z,24.03
2019-02-25T12:18:12.637Z,24.58
2019-02-25T12:20:43.330Z,23.54
2019-02-25T12:23:14.085Z,23.81
2019-02-25T12:25:44.879Z,23.57
2019-02-25T12:28:15.571Z,23.60
2019-02-25T12:30:46.331Z,24.40
2019-02-25T12:33:17.040Z,23.78
2019-02-25T12:35:47.623Z,23.75
2019-02-25T12:38:18.411Z,23.35
2019-02-25T12:40:49.363Z,24.25
2019-02-25T12:43:22.523Z,23.40
2019-02-25T12:45:53.518Z,23.86
2019-02-25T12:48:24.375Z,23.66
2019-02-25T12:50:55.400Z,23.94
2019-02-25T12:53:26.298Z,23.45
2019-02-25T12:55:56.974Z,23.70
2019-02-25T12:58:27.923Z,23.73
2019-02-25T13:00:58.675Z,24.04
2019-02-25T13:03:29.475Z,23.94
2019-02-25T13:06:01.555Z,24.75
2019-02-25T13:08:32.774Z,24.49
2019-02-25T13:11:03.646Z,23.88
2019-02-25T13:13:34.325Z,22.83
2019-02-25T13:16:05.181Z,23.35
2019-02-25T13:18:36.291Z,23.29
2019-02-25T13:21:06.929Z,22.60
2019-02-25T13:23:37.706Z,22.71
2019-02-25T13:26:08.229Z,23.39
2019-02-25T13:28:38.757Z,23.93
2019-02-25T13:31:10.237Z,23.98
2019-02-25T13:33:41.113Z,24.11
2019-02-25T13:36:15.163Z,24.28
2019-02-25T13:38:45.635Z,23.97
2019-02-25T13:41:16.539Z,24.09
2019-02-25T13:43:47.033Z,23.96
2019-02-25T13:46:17.523Z,23.82
2019-02-25T13:48:48.033Z,24.19
2019-02-25T13:51:18.872Z,23.68
2019-02-25T13:53:49.355Z,23.65
2019-02-25T13:56:19.858Z,22.71
2019-02-25T13:58:50.407Z,23.12
2019-02-25T14:01:20.915Z,23.28
2019-02-25T14:03:51.745Z,23.48
2019-02-25T14:06:22.259Z,23.15
2019-02-25T14:08:53.038Z,23.13
2019-02-25T14:11:23.569Z,23.19
2019-02-25T14:13:54.297Z,23.22
2019-02-25T14:16:24.791Z,22.84
2019-02-25T14:18:55.310Z,22.77
2019-02-25T14:21:26.030Z,22.72
2019-02-25T14:23:57.656Z,23.07
2019-02-25T14:26:29.169Z,23.21
2019-02-25T14:28:59.743Z,22.74
2019-02-25T14:31:30.225Z,22.75
2019-02-25T14:34:01.033Z,22.51
2019-02-25T14:36:31.499Z,22.55
2019-02-25T14:39:04.327Z,22.81
2019-02-25T14:41:34.277Z,22.62
2019-02-25T14:44:04.763Z,22.74
2019-02-25T14:46:35.262Z,22.54
2019-02-25T14:49:08.145Z,22.45
2019-02-25T14:51:38.338Z,22.34
2019-02-25T14:54:08.838Z,22.36
2019-02-25T14:56:39.603Z,22.16
2019-02-25T14:59:13.230Z,22.13
2019-02-25T15:01:42.680Z,22.04
2019-02-25T15:04:14.047Z,21.99
2019-02-25T15:06:44.878Z,21.89
2019-02-25T15:09:16.265Z,21.58
2019-02-25T15:11:46.859Z,21.57
2019-02-25T15:14:18.803Z,21.51
2019-02-25T15:16:49.923Z,21.35
2019-02-25T15:19:20.498Z,21.18
2019-02-25T15:21:52.177Z,20.96
2019-02-25T15:24:23.690Z,20.86
2019-02-25T15:26:57.082Z,20.76
2019-02-25T15:29:26.677Z,20.51
2019-02-25T15:31:58.956Z,20.55
2019-02-25T15:34:29.397Z,20.45
2019-02-25T15:37:00.711Z,20.30
2019-02-25T15:39:32.465Z,20.17
2019-02-25T15:42:03.266Z,20.13
2019-02-25T15:44:33.734Z,20.06
2019-02-25T15:47:06.629Z,19.96
2019-02-25T15:49:38.662Z,19.77
2019-02-25T15:52:10.562Z,19.68
2019-02-25T15:54:42.022Z,19.60
2019-02-25T15:57:13.456Z,19.46
2019-02-25T15:59:43.947Z,19.22
2019-02-25T16:02:15.194Z,19.18
2019-02-25T16:04:46.074Z,18.97
2019-02-25T16:07:16.779Z,18.92
2019-02-25T16:09:47.473Z,18.81
2019-02-25T16:12:18.236Z,18.77
2019-02-25T16:14:50.844Z,18.63
2019-02-25T16:17:22.316Z,18.54
2019-02-25T16:19:54.745Z,18.47
2019-02-25T16:22:26.226Z,18.42
2019-02-25T16:24:59.048Z,18.31
2019-02-25T16:27:29.911Z,18.25
2019-02-25T16:30:02.753Z,18.17
2019-02-25T16:32:32.881Z,18.07
2019-02-25T16:35:04.979Z,17.97
2019-02-25T16:37:35.801Z,17.91
2019-02-25T16:40:10.137Z,17.88
2019-02-25T16:42:41.372Z,17.79
2019-02-25T16:45:15.237Z,17.68
2019-02-25T16:47:45.741Z,17.60
2019-02-25T16:50:16.539Z,17.57
2019-02-25T16:52:49.367Z,17.45
2019-02-25T16:55:22.502Z,17.36
2019-02-25T16:57:52.832Z,17.27
2019-02-25T17:00:25.302Z,17.23
2019-02-25T17:02:59.212Z,17.13
2019-02-25T17:05:28.423Z,17.02
2019-02-25T17:08:01.054Z,16.92
2019-02-25T17:10:33.634Z,16.82
2019-02-25T17:13:05.653Z,16.76
2019-02-25T17:15:36.474Z,16.61
2019-02-25T17:18:06.968Z,16.50
2019-02-25T17:20:37.450Z,16.44
2019-02-25T17:23:10.100Z,16.36
2019-02-25T17:25:40.771Z,16.37
2019-02-25T17:28:14.672Z,16.24
2019-02-25T17:30:45.626Z,16.16
2019-02-25T17:33:16.601Z,16.06
2019-02-25T17:35:47.581Z,16.00
2019-02-25T17:38:20.919Z,15.93
2019-02-25T17:40:51.597Z,15.84
2019-02-25T17:43:22.065Z,15.80
2019-02-25T17:45:56.110Z,15.72
2019-02-25T17:48:25.356Z,15.77
2019-02-25T17:50:57.277Z,15.67
2019-02-25T17:53:28.854Z,15.57
2019-02-25T17:56:00.432Z,15.50
2019-02-25T17:58:30.924Z,15.51
2019-02-25T18:01:03.207Z,15.48
2019-02-25T18:03:33.766Z,15.41
2019-02-25T18:06:05.429Z,15.44
2019-02-25T18:08:39.319Z,15.43
2019-02-25T18:11:09.687Z,15.38
2019-02-25T18:13:40.437Z,15.32
2019-02-25T18:16:12.168Z,15.31
2019-02-25T18:18:43.650Z,15.24
2019-02-25T18:21:15.824Z,15.16
2019-02-25T18:23:46.621Z,15.04
2019-02-25T18:26:17.386Z,15.01
2019-02-25T18:28:48.447Z,14.86
2019-02-25T18:31:20.190Z,14.74
2019-02-25T18:33:52.741Z,14.71
2019-02-25T18:36:24.489Z,14.72
2019-02-25T18:38:55.275Z,14.77
2019-02-25T18:41:27.880Z,14.74
2019-02-25T18:43:58.191Z,14.76
2019-02-25T18:46:29.838Z,14.74
2019-02-25T18:49:00.514Z,14.76
2019-02-25T18:51:32.862Z,14.77
2019-02-25T18:54:03.774Z,14.75
2019-02-25T18:56:35.815Z,14.85
2019-02-25T18:59:12.217Z,14.84
2019-02-25T19:01:39.497Z,14.77
2019-02-25T19:04:11.006Z,14.69
2019-02-25T19:06:43.586Z,14.60
2019-02-25T19:09:25.643Z,14.51
2019-02-25T19:11:57.926Z,14.55
2019-02-25T19:14:29.356Z,14.42
2019-02-25T19:17:02.132Z,14.37
2019-02-25T19:19:34.242Z,14.47
2019-02-25T19:22:06.067Z,14.39
2019-02-25T19:24:39.704Z,14.39
2019-02-25T19:27:10.822Z,14.44
2019-02-25T19:29:45.095Z,14.32
2019-02-25T19:32:14.849Z,14.35
2019-02-25T19:34:45.432Z,14.27
2019-02-25T19:37:16.219Z,14.30
2019-02-25T19:39:48.835Z,14.17
2019-02-25T19:42:20.817Z,14.19
2019-02-25T19:44:51.602Z,14.11
2019-02-25T19:47:22.182Z,14.03
2019-02-25T19:49:52.677Z,14.00
2019-02-25T19:52:23.288Z,13.96
2019-02-25T19:54:53.884Z,13.95
2019-02-25T19:57:26.141Z,13.89
2019-02-25T19:59:57.981Z,13.73
2019-02-25T20:02:29.758Z,13.72
2019-02-25T20:05:01.514Z,13.65
2019-02-25T20:07:34.057Z,13.60
2019-02-25T20:10:05.153Z,13.63
2019-02-25T20:12:35.755Z,13.49
2019-02-25T20:15:11.129Z,13.37
2019-02-25T20:17:41.660Z,13.27
2019-02-25T20:20:15.044Z,13.14
2019-02-25T20:22:45.713Z,13.04
2019-02-25T20:25:16.675Z,12.94
2019-02-25T20:27:48.919Z,12.84
2019-02-25T20:30:21.931Z,12.69
2019-02-25T20:32:52.341Z,12.53
2019-02-25T20:35:24.636Z,12.41
2019-02-25T20:37:57.919Z,12.33
2019-02-25T20:40:30.345Z,12.34
2019-02-25T20:43:03.074Z,12.31
2019-02-25T20:45:35.356Z,12.20
2019-02-25T20:48:06.545Z,12.07
2019-02-25T20:50:37.613Z,11.98
2019-02-25T20:53:10.951Z,11.97
2019-02-25T20:55:41.501Z,11.93
2019-02-25T20:58:13.986Z,11.91
2019-02-25T21:00:46.603Z,11.93
2019-02-25T21:03:18.935Z,11.85
2019-02-25T21:05:50.392Z,11.77
2019-02-25T21:08:23.527Z,11.66
2019-02-25T21:10:54.252Z,11.63
2019-02-25T21:13:28.539Z,11.70
2019-02-25T21:15:58.371Z,11.63
2019-02-25T21:18:31.036Z,11.65
2019-02-25T21:21:01.720Z,11.57
2019-02-25T21:23:32.462Z,11.50
2019-02-25T21:26:04.879Z,11.49
2019-02-25T21:28:36.508Z,11.36
2019-02-25T21:31:13.573Z,11.27
2019-02-25T21:33:44.951Z,11.26
2019-02-25T21:36:13.222Z,11.21
2019-02-25T21:38:45.825Z,11.20
2019-02-25T21:41:17.666Z,11.26
2019-02-25T21:43:49.420Z,11.37
2019-02-25T21:46:22.480Z,11.39
2019-02-25T21:48:54.964Z,11.38
2019-02-25T21:51:28.096Z,11.39
2019-02-25T21:53:59.952Z,11.35
2019-02-25T21:56:30.658Z,11.45
2019-02-25T21:59:01.390Z,11.47
2019-02-25T22:01:32.740Z,11.53
2019-02-25T22:04:04.131Z,11.55
2019-02-25T22:06:34.688Z,11.49
2019-02-25T22:09:07.437Z,11.46
2019-02-25T22:11:38.619Z,11.35
2019-02-25T22:14:09.192Z,11.26
2019-02-25T22:16:44.032Z,11.13
2019-02-25T22:19:14.100Z,11.02
2019-02-25T22:21:45.848Z,10.92
2019-02-25T22:24:16.618Z,10.88
2019-02-25T22:26:49.412Z,10.97
2019-02-25T22:29:19.771Z,11.16
2019-02-25T22:31:50.255Z,11.32
2019-02-25T22:34:22.942Z,11.38
2019-02-25T22:36:55.819Z,11.42
2019-02-25T22:39:27.856Z,11.53
2019-02-25T22:41:58.676Z,11.47
2019-02-25T22:44:31.324Z,11.40
2019-02-25T22:47:05.112Z,11.29
2019-02-25T22:49:34.419Z,11.21
2019-02-25T22:52:05.573Z,11.20
2019-02-25T22:54:39.227Z,11.20
2019-02-25T22:57:09.577Z,11.09
2019-02-25T22:59:40.195Z,10.99
2019-02-25T23:02:11.248Z,10.97
2019-02-25T23:04:44.907Z,10.93
2019-02-25T23:07:15.333Z,10.81
2019-02-25T23:09:48.116Z,10.71
2019-02-25T23:12:21.531Z,10.63
2019-02-25T23:14:54.334Z,10.56
2019-02-25T23:17:25.796Z,10.50
2019-02-25T23:19:58.029Z,10.38
2019-02-25T23:22:30.189Z,10.34
2019-02-25T23:25:01.021Z,10.29
2019-02-25T23:27:32.317Z,10.31
2019-02-25T23:30:04.337Z,10.42
2019-02-25T23:32:38.826Z,10.49
2019-02-25T23:35:11.484Z,10.41
2019-02-25T23:37:40.462Z,10.51
2019-02-25T23:40:12.530Z,10.51
2019-02-25T23:42:44.301Z,10.53
2019-02-25T23:45:17.854Z,10.58
2019-02-25T23:47:47.804Z,10.54
2019-02-25T23:50:18.311Z,10.63
2019-02-25T23:52:49.071Z,10.54
2019-02-25T23:55:21.745Z,10.57
2019-02-25T23:57:52.031Z,10.53
